Time;durP1;ratioP1;P1;durP2;ratioP2;P2;SDS_P1;SDS_P2;PMS_P1;PMS_P2;Temp;Humidity;BMP_temperature;BMP_pressure;BME280_temperature;BME280_humidity;BME280_pressure;Samples;Min_cycle;Max_cycle;Signal;HPM_P1;HPM_P2
2022/04/20 00:00:44;;;;;;;17.77;11.12;;;;;;;;;;4407848;32;20360;-70
2022/04/20 00:03:09;;;;;;;;;;;;;;;;;;4406479;32;20481;-71
2022/04/20 00:05:35;;;;;;;18.55;11.07;;;;;;;;;;4406319;32;20315;-70
2022/04/20 00:08:00;;;;;;;;;;;;;;;;;;4407196;32;20095;-70
2022/04/20 00:10:25;;;;;;;19.42;10.63;;;;;;;;;;4392443;32;19938;-71
2022/04/20 00:12:50;;;;;;;;;;;;;;;;;;4394302;32;20404;-70
2022/04/20 00:15:15;;;;;;;16.77;9.95;;;;;;;;;;4406513;32;20278;-71
2022/04/20 00:17:40;;;;;;;;;;;;;;;;;;4408729;32;20555;-70
2022/04/20 00:20:06;;;;;;;18.77;10.60;;;;;;;;;;4407726;32;19990;-70
2022/04/20 00:22:31;;;;;;;;;;;;;;;;;;4394369;32;20034;-69
2022/04/20 00:24:56;;;;;;;15.27;9.68;;;;;;;;;;4407972;32;19934;-71
2022/04/20 00:27:21;;;;;;;;;;;;;;;;;;4392951;32;20081;-69
2022/04/20 00:29:46;;;;;;;17.35;10.07;;;;;;;;;;4393436;32;19970;-70
2022/04/20 00:32:11;;;;;;;;;;;;;;;;;;4407234;32;20416;-71
2022/04/20 00:34:37;;;;;;;19.35;9.27;;;;;;;;;;4393766;32;19948;-72
2022/04/20 00:37:02;;;;;;;;;;;;;;;;;;4407920;32;20027;-71
2022/04/20 00:39:27;;;;;;;17.00;9.73;;;;;;;;;;4419297;27;19937;-75
2022/04/20 00:41:52;;;;;;;;;;;;;;;;;;4391632;32;20023;-73
2022/04/20 00:44:18;;;;;;;15.48;10.20;;;;;;;;;;4391185;32;20229;-77
2022/04/20 00:46:45;;;;;;;20.40;9.98;;;;;;;;;;4381935;32;20550;-76
2022/04/20 00:49:13;;;;;;;14.55;9.68;;;;;;;;;;4393619;32;20423;-75
2022/04/20 00:51:49;;;;;;;19.83;9.65;;;;;;;;;;4395911;32;20026;-76
2022/04/20 00:54:15;;;;;;;17.92;9.68;;;;;;;;;;4377335;32;20034;-76
2022/04/20 00:56:40;;;;;;;;;;;;;;;;;;4377461;32;20334;-76
2022/04/20 00:59:05;;;;;;;14.52;9.10;;;;;;;;;;4378627;32;19941;-76
2022/04/20 01:01:30;;;;;;;;;;;;;;;;;;4392145;32;20094;-75
2022/04/20 01:03:55;;;;;;;15.98;9.90;;;;;;;;;;4391251;32;20271;-76
2022/04/20 01:06:21;;;;;;;;;;;;;;;;;;4400051;32;20532;-76
2022/04/20 01:08:46;;;;;;;13.48;8.48;;;;;;;;;;4391980;32;19945;-77
2022/04/20 01:11:11;;;;;;;;;;;;;;;;;;4392142;32;20064;-76
2022/04/20 01:13:37;;;;;;;18.30;10.23;;;;;;;;;;4405630;32;20353;-75
2022/04/20 01:16:02;;;;;;;;;;;;;;;;;;4396541;32;20454;-76
2022/04/20 01:18:28;;;;;;;17.12;9.05;;;;;;;;;;4391153;32;19934;-75
2022/04/20 01:20:54;;;;;;;16.45;9.77;;;;;;;;;;4390761;32;20123;-75
2022/04/20 01:23:19;;;;;;;;;;;;;;;;;;4390835;32;20420;-76
2022/04/20 01:25:44;;;;;;;13.05;9.27;;;;;;;;;;4390670;32;19975;-76
2022/04/20 01:28:10;;;;;;;;;;;;;;;;;;4392808;32;20404;-75
2022/04/20 01:30:35;;;;;;;15.55;9.65;;;;;;;;;;4405315;32;19978;-76
2022/04/20 01:33:00;;;;;;;;;;;;;;;;;;4396202;32;20356;-75
2022/04/20 01:35:26;;;;;;;16.98;8.73;;;;;;;;;;4390359;32;20344;-76
2022/04/20 01:37:51;;;;;;;;;;;;;;;;;;4377136;32;20459;-75
2022/04/20 01:40:16;;;;;;;12.20;9.50;;;;;;;;;;4389881;32;19972;-75
2022/04/20 01:42:41;;;;;;;;;;;;;;;;;;4390776;32;20106;-76
2022/04/20 01:45:06;;;;;;;20.37;9.40;;;;;;;;;;4394568;32;19948;-76
2022/04/20 01:47:32;;;;;;;;;;;;;;;;;;4405381;32;20065;-76
2022/04/20 01:49:57;;;;;;;15.30;9.40;;;;;;;;;;4406447;32;19985;-75
2022/04/20 01:52:22;;;;;;;;;;;;;;;;;;4405540;32;20130;-77
2022/04/20 01:54:47;;;;;;;13.70;8.85;;;;;;;;;;4405422;32;19989;-75
2022/04/20 01:57:12;;;;;;;;;;;;;;;;;;4406186;32;20053;-76
2022/04/20 01:59:38;;;;;;;12.18;8.73;;;;;;;;;;4407633;32;19971;-76
2022/04/20 02:04:47;;;;;;;14.80;8.90;;;;;;;;;;4409297;32;19939;-76
2022/04/20 02:07:12;;;;;;;;;;;;;;;;;;4394937;32;20019;-76
2022/04/20 02:09:37;;;;;;;12.93;9.23;;;;;;;;;;4408569;32;19937;-75
2022/04/20 02:12:02;;;;;;;;;;;;;;;;;;4395023;32;20049;-75
2022/04/20 02:14:27;;;;;;;15.93;8.90;;;;;;;;;;4408272;32;20263;-76
2022/04/20 02:16:52;;;;;;;;;;;;;;;;;;4394520;32;20157;-75
2022/04/20 02:19:18;;;;;;;12.23;8.10;;;;;;;;;;4408352;32;19933;-77
2022/04/20 02:21:43;;;;;;;;;;;;;;;;;;4395588;32;20154;-75
2022/04/20 02:24:10;;;;;;;14.25;8.70;;;;;;;;;;4408529;32;20307;-75
2022/04/20 02:26:35;;;;;;;12.40;8.77;;;;;;;;;;4408068;32;20033;-75
2022/04/20 02:29:00;;;;;;;;;;;;;;;;;;4408784;32;20060;-73
2022/04/20 02:31:25;;;;;;;18.37;9.10;;;;;;;;;;4407784;32;19941;-77
2022/04/20 02:33:50;;;;;;;;;;;;;;;;;;4408979;32;20199;-75
2022/04/20 02:36:16;;;;;;;12.45;8.73;;;;;;;;;;4395765;32;19953;-76
2022/04/20 02:38:41;;;;;;;;;;;;;;;;;;4408877;32;20561;-70
2022/04/20 02:41:07;;;;;;;12.63;8.52;;;;;;;;;;4407578;32;20291;-77
2022/04/20 02:43:32;;;;;;;;;;;;;;;;;;4409732;32;20030;-74
2022/04/20 02:45:57;;;;;;;17.75;9.50;;;;;;;;;;4407638;32;19938;-75
2022/04/20 02:48:22;;;;;;;;;;;;;;;;;;4394374;32;20022;-75
2022/04/20 02:50:47;;;;;;;12.65;8.13;;;;;;;;;;4393982;32;19937;-74
2022/04/20 02:53:13;;;;;;;;;;;;;;;;;;4408565;32;20227;-76
2022/04/20 02:55:38;;;;;;;17.15;9.00;;;;;;;;;;4407678;32;20270;-75
2022/04/20 02:58:04;;;;;;;;;;;;;;;;;;4394003;32;20057;-75
2022/04/20 03:00:29;;;;;;;13.40;9.25;;;;;;;;;;4393406;32;20283;-75
2022/04/20 03:02:54;;;;;;;;;;;;;;;;;;4394252;32;20057;-75
2022/04/20 03:05:20;;;;;;;13.23;8.90;;;;;;;;;;4393909;32;19942;-76
2022/04/20 03:07:45;;;;;;;;;;;;;;;;;;4409163;32;20056;-75
2022/04/20 03:10:10;;;;;;;12.75;8.88;;;;;;;;;;4407892;32;19934;-75
2022/04/20 03:12:35;;;;;;;;;;;;;;;;;;4407423;32;20018;-76
2022/04/20 03:15:00;;;;;;;12.23;8.10;;;;;;;;;;4393451;32;19934;-76
2022/04/20 03:17:26;;;;;;;;;;;;;;;;;;4408786;32;20561;-75
2022/04/20 03:19:51;;;;;;;15.05;7.80;;;;;;;;;;4407668;32;19941;-75
2022/04/20 03:22:16;;;;;;;;;;;;;;;;;;4407474;32;20048;-75
2022/04/20 03:24:41;;;;;;;13.95;8.10;;;;;;;;;;4407226;32;19941;-76
2022/04/20 03:27:06;;;;;;;;;;;;;;;;;;4407635;32;20050;-73
2022/04/20 03:29:32;;;;;;;14.27;7.62;;;;;;;;;;4406736;32;20080;-74
2022/04/20 03:31:57;;;;;;;;;;;;;;;;;;4408352;32;20026;-73
2022/04/20 03:34:22;;;;;;;17.50;8.80;;;;;;;;;;4407703;32;19933;-75
2022/04/20 03:36:47;;;;;;;;;;;;;;;;;;4406689;32;20031;-75
2022/04/20 03:39:13;;;;;;;11.68;7.15;;;;;;;;;;4406692;32;19975;-75
2022/04/20 03:41:38;;;;;;;;;;;;;;;;;;4393211;32;20154;-76
2022/04/20 03:44:03;;;;;;;12.27;7.53;;;;;;;;;;4406970;32;19973;-76
2022/04/20 03:46:28;;;;;;;;;;;;;;;;;;4407178;32;20027;-76
2022/04/20 03:48:54;;;;;;;10.82;7.78;;;;;;;;;;4393514;32;19941;-76
2022/04/20 03:51:19;;;;;;;;;;;;;;;;;;4407072;32;20023;-75
2022/04/20 03:53:45;;;;;;;10.60;8.05;;;;;;;;;;4406647;32;19951;-75
2022/04/20 03:56:10;;;;;;;;;;;;;;;;;;4393386;32;20071;-75
2022/04/20 03:58:36;;;;;;;10.43;7.60;;;;;;;;;;4406369;32;19941;-76
2022/04/20 04:01:01;;;;;;;;;;;;;;;;;;4407556;32;20030;-72
2022/04/20 04:03:27;;;;;;;14.45;7.45;;;;;;;;;;4407497;32;19998;-75
2022/04/20 04:05:52;;;;;;;;;;;;;;;;;;4406910;32;20337;-72
2022/04/20 04:08:17;;;;;;;10.80;7.37;;;;;;;;;;4406738;32;19937;-75
2022/04/20 04:10:43;;;;;;;;;;;;;;;;;;4407259;32;20081;-74
2022/04/20 04:13:08;;;;;;;15.38;7.78;;;;;;;;;;4407070;32;19957;-76
2022/04/20 04:15:33;;;;;;;;;;;;;;;;;;4406797;32;20057;-75
2022/04/20 04:18:03;;;;;;;12.90;8.15;;;;;;;;;;4407273;32;19952;-73
2022/04/20 04:20:28;;;;;;;12.75;8.20;;;;;;;;;;4407081;32;20404;-74
2022/04/20 04:22:53;;;;;;;;;;;;;;;;;;4392503;32;20111;-76
2022/04/20 04:25:19;;;;;;;12.50;7.12;;;;;;;;;;4406472;32;19967;-76
2022/04/20 04:27:44;;;;;;;;;;;;;;;;;;4408046;32;20460;-74
2022/04/20 04:30:10;;;;;;;18.75;7.18;;;;;;;;;;4406022;32;20383;-75
2022/04/20 04:32:35;;;;;;;;;;;;;;;;;;4406850;32;20022;-76
2022/04/20 04:35:03;;;;;;;15.23;7.65;;;;;;;;;;4406225;32;19933;-75
2022/04/20 04:37:29;;;;;;;13.93;7.57;;;;;;;;;;4393508;32;20127;-76
2022/04/20 04:39:54;;;;;;;;;;;;;;;;;;4406657;32;20125;-75
2022/04/20 04:42:19;;;;;;;12.10;7.43;;;;;;;;;;4406842;32;20296;-76
2022/04/20 04:44:44;;;;;;;;;;;;;;;;;;4406206;32;20148;-75
2022/04/20 04:49:53;;;;;;;12.50;7.65;;;;;;;;;;4406557;32;20159;-76
2022/04/20 04:52:19;;;;;;;14.10;7.15;;;;;;;;;;4406045;32;20030;-78
2022/04/20 04:54:44;;;;;;;;;;;;;;;;;;4405802;32;20091;-78
2022/04/20 04:57:09;;;;;;;9.70;6.72;;;;;;;;;;4405534;32;19933;-77
2022/04/20 04:59:35;;;;;;;;;;;;;;;;;;4406044;32;20206;-77
2022/04/20 05:02:00;;;;;;;12.52;7.05;;;;;;;;;;4406054;32;19933;-77
2022/04/20 05:04:25;;;;;;;12.75;7.07;;;;;;;;;;4391823;32;20122;-78
2022/04/20 05:06:50;;;;;;;;;;;;;;;;;;4406349;32;20072;-78
2022/04/20 05:09:16;;;;;;;12.35;7.45;;;;;;;;;;4406052;32;19971;-77
2022/04/20 05:11:42;;;;;;;;;;;;;;;;;;4406470;32;20023;-85
2022/04/20 05:14:08;;;;;;;12.95;6.97;;;;;;;;;;4405528;32;19974;-77
2022/04/20 05:16:33;;;;;;;;;;;;;;;;;;4405346;32;20065;-78
2022/04/20 05:18:58;;;;;;;10.48;7.07;;;;;;;;;;4406796;32;19941;-76
2022/04/20 05:21:23;;;;;;;;;;;;;;;;;;4406043;32;20546;-78
2022/04/20 05:23:48;;;;;;;10.93;6.75;;;;;;;;;;4406834;32;19938;-77
2022/04/20 05:26:14;;;;;;;;;;;;;;;;;;4406098;32;20104;-78
2022/04/20 05:28:39;;;;;;;13.13;6.90;;;;;;;;;;4405471;32;19979;-77
2022/04/20 05:31:04;;;;;;;;;;;;;;;;;;4405540;32;20383;-78
2022/04/20 05:33:29;;;;;;;11.45;6.90;;;;;;;;;;4390888;32;19948;-78
2022/04/20 05:35:54;;;;;;;14.63;6.53;;;;;;;;;;4405760;32;20110;-77
2022/04/20 05:43:48;;;;;;;8.90;6.43;;;;;;;;;;4405204;32;20380;-76
2022/04/20 05:46:16;;;;;;;9.02;6.05;;;;;;;;;;4405497;32;20053;-78
2022/04/20 05:48:41;;;;;;;9.65;6.32;;;;;;;;;;4405070;32;20026;-79
2022/04/20 05:51:07;;;;;;;11.27;5.93;;;;;;;;;;4404794;32;20045;-78
2022/04/20 05:53:33;;;;;;;13.85;6.70;;;;;;;;;;4390980;32;20030;-78
2022/04/20 05:55:58;;;;;;;;;;;;;;;;;;4405663;32;20022;-79
2022/04/20 05:58:23;;;;;;;8.15;5.12;;;;;;;;;;4391557;32;19949;-75
2022/04/20 06:00:48;;;;;;;;;;;;;;;;;;4405307;32;20122;-77
2022/04/20 06:03:13;;;;;;;11.80;6.18;;;;;;;;;;4403554;32;19999;-78
2022/04/20 06:05:39;;;;;;;;;;;;;;;;;;4402889;32;20034;-75
2022/04/20 06:08:04;;;;;;;16.85;5.85;;;;;;;;;;4403885;32;20061;-77
2022/04/20 06:10:32;;;;;;;;;;;;;;;;;;4405564;32;20414;-77
2022/04/20 06:12:57;;;;;;;8.82;5.72;;;;;;;;;;4405387;32;19933;-77
2022/04/20 06:15:22;;;;;;;;;;;;;;;;;;4391664;32;20117;-79
2022/04/20 06:17:48;;;;;;;13.95;5.85;;;;;;;;;;4404922;32;19990;-77
2022/04/20 06:20:13;;;;;;;;;;;;;;;;;;4404712;32;20498;-78
2022/04/20 06:22:38;;;;;;;12.90;5.57;;;;;;;;;;4391020;32;19937;-75
2022/04/20 06:25:03;;;;;;;;;;;;;;;;;;4391198;32;20162;-76
2022/04/20 06:27:30;;;;;;;7.80;5.87;;;;;;;;;;4404925;32;19938;-75
2022/04/20 06:29:55;;;;;;;9.10;6.12;;;;;;;;;;4405094;32;20054;-76
2022/04/20 06:32:22;;;;;;;;;;;;;;;;;;4404982;32;20046;-77
2022/04/20 06:34:48;;;;;;;9.13;5.00;;;;;;;;;;4404453;32;19941;-78
2022/04/20 06:37:13;;;;;;;;;;;;;;;;;;4416332;32;20476;-78
2022/04/20 06:39:38;;;;;;;11.75;4.72;;;;;;;;;;4419505;32;19966;-77
2022/04/20 06:42:03;;;;;;;;;;;;;;;;;;4421206;32;20076;-77
2022/04/20 06:44:28;;;;;;;8.75;4.80;;;;;;;;;;4420471;32;20315;-79
2022/04/20 06:46:54;;;;;;;;;;;;;;;;;;4422980;32;20053;-76
2022/04/20 06:49:19;;;;;;;7.97;4.70;;;;;;;;;;4410371;32;20320;-78
2022/04/20 06:59:58;;;;;;;8.98;5.57;;;;;;;;;;4407664;32;20071;-79
2022/04/20 07:02:23;;;;;;;;;;;;;;;;;;4407311;32;20030;-78
2022/04/20 07:04:48;;;;;;;9.50;4.97;;;;;;;;;;4408336;32;19967;-78
2022/04/20 07:07:13;;;;;;;;;;;;;;;;;;4407734;32;20456;-79
2022/04/20 07:09:38;;;;;;;7.35;4.75;;;;;;;;;;4407118;32;19948;-76
2022/04/20 07:12:04;;;;;;;;;;;;;;;;;;4412757;32;20134;-78
2022/04/20 07:14:29;;;;;;;5.47;4.15;;;;;;;;;;4413881;32;19941;-79
2022/04/20 07:16:54;;;;;;;;;;;;;;;;;;4407463;32;20068;-78
2022/04/20 07:19:19;;;;;;;8.27;4.30;;;;;;;;;;4407010;32;19985;-78
2022/04/20 07:21:44;;;;;;;;;;;;;;;;;;4393255;32;20148;-78
2022/04/20 07:24:10;;;;;;;6.40;4.30;;;;;;;;;;4406824;32;19998;-80
2022/04/20 07:26:35;;;;;;;;;;;;;;;;;;4405443;32;20130;-79
2022/04/20 07:29:00;;;;;;;6.68;4.50;;;;;;;;;;4404770;32;19957;-77
2022/04/20 07:31:25;;;;;;;;;;;;;;;;;;4406374;32;20060;-78
2022/04/20 07:33:51;;;;;;;7.82;6.15;;;;;;;;;;4406979;32;19942;-79
2022/04/20 07:36:16;;;;;;;;;;;;;;;;;;4408144;32;20061;-79
2022/04/20 07:38:42;;;;;;;6.57;4.62;;;;;;;;;;4406642;32;19938;-79
2022/04/20 07:41:19;;;;;;;9.00;4.37;;;;;;;;;;4407090;32;20375;-79
2022/04/20 07:43:44;;;;;;;6.10;4.03;;;;;;;;;;4393263;32;20061;-78
2022/04/20 07:46:12;;;;;;;;;;;;;;;;;;4394119;32;20304;-78
2022/04/20 07:48:38;;;;;;;6.82;4.30;;;;;;;;;;4406367;32;20300;-78
2022/04/20 07:51:03;;;;;;;;;;;;;;;;;;4406874;32;20041;-77
2022/04/20 07:53:34;;;;;;;14.80;4.05;;;;;;;;;;4406660;32;19938;-78
2022/04/20 07:56:00;;;;;;;10.43;5.05;;;;;;;;;;4406444;32;20113;-79
2022/04/20 07:58:25;;;;;;;;;;;;;;;;;;4406729;32;20034;-78
2022/04/20 08:00:51;;;;;;;6.43;3.95;;;;;;;;;;4406602;32;19933;-77
2022/04/20 08:03:17;;;;;;;5.65;4.15;;;;;;;;;;4393111;32;20086;-79
2022/04/20 08:05:42;;;;;;;;;;;;;;;;;;4406922;32;20018;-78
2022/04/20 08:08:09;;;;;;;7.60;4.32;;;;;;;;;;4407190;32;20016;-79
2022/04/20 08:10:34;;;;;;;7.85;4.75;;;;;;;;;;4406255;32;20023;-79
2022/04/20 08:12:59;;;;;;;;;;;;;;;;;;4393234;32;20110;-78
2022/04/20 08:15:24;;;;;;;6.30;4.12;;;;;;;;;;4406828;32;20270;-79
2022/04/20 08:17:50;;;;;;;;;;;;;;;;;;4392740;32;20424;-75
2022/04/20 08:20:15;;;;;;;6.65;4.60;;;;;;;;;;4392714;32;19938;-77
2022/04/20 08:22:41;;;;;;;;;;;;;;;;;;4406500;32;20056;-78
2022/04/20 08:25:07;;;;;;;8.18;4.12;;;;;;;;;;4392380;32;19929;-79
2022/04/20 08:27:32;;;;;;;10.07;4.35;;;;;;;;;;4405867;32;20378;-77
2022/04/20 08:29:57;;;;;;;;;;;;;;;;;;4392967;32;20367;-79
2022/04/20 08:32:23;;;;;;;8.48;4.50;;;;;;;;;;4405785;32;19948;-78
2022/04/20 08:34:48;;;;;;;;;;;;;;;;;;4408194;32;20091;-78
2022/04/20 08:37:14;;;;;;;5.95;4.07;;;;;;;;;;4406039;32;19984;-77
2022/04/20 08:39:39;;;;;;;;;;;;;;;;;;4395826;32;20077;-80
2022/04/20 08:42:05;;;;;;;7.78;4.22;;;;;;;;;;4391414;32;19965;-80
2022/04/20 08:44:30;;;;;;;;;;;;;;;;;;4391254;32;20188;-80
2022/04/20 08:46:59;;;;;;;11.98;5.60;;;;;;;;;;4391782;32;20004;-77
2022/04/20 08:49:27;;;;;;;7.50;4.18;;;;;;;;;;4391903;32;20482;-78
2022/04/20 08:54:36;;;;;;;7.25;4.70;;;;;;;;;;4390935;32;20115;-78
2022/04/20 08:57:19;;;;;;;8.05;4.53;;;;;;;;;;4391041;32;20023;-79
2022/04/20 08:59:51;;;;;;;7.05;4.12;;;;;;;;;;4390668;32;20365;-76
2022/04/20 09:02:17;;;;;;;11.90;5.12;;;;;;;;;;4390951;32;20022;-78
2022/04/20 09:04:42;;;;;;;8.68;4.87;;;;;;;;;;4390545;32;20077;-79
2022/04/20 09:07:18;;;;;;;5.75;4.55;;;;;;;;;;4390807;32;20424;-80
2022/04/20 09:09:43;;;;;;;9.50;4.30;;;;;;;;;;4390988;32;20392;-78
2022/04/20 09:12:12;;;;;;;7.25;4.53;;;;;;;;;;4377676;32;20045;-77
2022/04/20 09:14:39;;;;;;;8.93;4.03;;;;;;;;;;4390239;32;20035;-78
2022/04/20 09:17:05;;;;;;;6.30;3.90;;;;;;;;;;4390719;32;20140;-78
2022/04/20 09:19:33;;;;;;;5.40;4.05;;;;;;;;;;4390740;32;20056;-79
2022/04/20 09:21:58;;;;;;;5.60;3.90;;;;;;;;;;4390226;32;20041;-78
2022/04/20 09:24:24;;;;;;;8.23;3.80;;;;;;;;;;4390253;32;20435;-79
2022/04/20 09:26:53;;;;;;;6.97;3.72;;;;;;;;;;4376325;32;20086;-78
2022/04/20 09:29:19;;;;;;;5.43;3.80;;;;;;;;;;4389930;32;20038;-79
2022/04/20 09:31:46;;;;;;;6.05;3.67;;;;;;;;;;4390385;32;20065;-79
2022/04/20 09:34:34;;;;;;;7.15;3.97;;;;;;;;;;4377527;32;20076;-78
2022/04/20 09:37:19;;;;;;;5.95;3.78;;;;;;;;;;4391211;32;20097;-79
2022/04/20 09:39:49;;;;;;;9.65;3.92;;;;;;;;;;4386942;32;20066;-77
2022/04/20 09:42:15;;;;;;;8.43;4.20;;;;;;;;;;4405502;32;20026;-78
2022/04/20 09:44:51;;;;;;;5.72;3.30;;;;;;;;;;4406230;32;20072;-78
2022/04/20 09:50:04;;;;;;;10.63;3.97;;;;;;;;;;4405611;32;20272;-78
2022/04/20 09:52:35;;;;;;;4.90;3.45;;;;;;;;;;4405462;32;20046;-79
2022/04/20 09:55:06;;;;;;;6.75;4.35;;;;;;;;;;4405294;32;20038;-80
2022/04/20 09:57:31;;;;;;;14.13;3.90;;;;;;;;;;4391140;32;20056;-79
2022/04/20 10:00:00;;;;;;;6.35;4.28;;;;;;;;;;4405160;32;20031;-78
2022/04/20 10:02:27;;;;;;;6.00;3.03;;;;;;;;;;4405039;32;20034;-79
2022/04/20 10:04:54;;;;;;;5.20;3.58;;;;;;;;;;4404782;32;20052;-79
2022/04/20 10:07:19;;;;;;;6.37;3.42;;;;;;;;;;4405158;32;20026;-79
2022/04/20 10:09:45;;;;;;;5.78;3.45;;;;;;;;;;4391008;32;20131;-79
2022/04/20 10:12:17;;;;;;;5.28;3.55;;;;;;;;;;4391562;32;20048;-79
2022/04/20 10:17:31;;;;;;;5.43;3.83;;;;;;;;;;4405162;32;20073;-80
2022/04/20 10:19:57;;;;;;;7.47;4.03;;;;;;;;;;4405793;32;20030;-79
2022/04/20 10:22:24;;;;;;;6.40;4.12;;;;;;;;;;4407975;32;20097;-80
2022/04/20 10:24:53;;;;;;;7.37;4.07;;;;;;;;;;4407898;32;20030;-79
2022/04/20 10:27:25;;;;;;;5.47;3.72;;;;;;;;;;4407605;32;20026;-79
2022/04/20 10:29:58;;;;;;;7.07;3.40;;;;;;;;;;4408829;32;20038;-78
2022/04/20 10:32:24;;;;;;;6.70;3.40;;;;;;;;;;4408564;32;20018;-80
2022/04/20 10:34:50;;;;;;;5.62;3.67;;;;;;;;;;4381492;32;20022;-79
2022/04/20 10:37:22;;;;;;;10.52;3.92;;;;;;;;;;4394299;32;20018;-79
2022/04/20 10:39:49;;;;;;;7.95;3.70;;;;;;;;;;4407372;32;20038;-79
2022/04/20 10:42:16;;;;;;;5.57;3.67;;;;;;;;;;4408043;32;20058;-79
2022/04/20 10:45:03;;;;;;;5.60;3.90;;;;;;;;;;4394077;32;20021;-78
2022/04/20 10:47:35;;;;;;;11.55;3.90;;;;;;;;;;4407392;32;20355;-80
2022/04/20 10:50:20;;;;;;;7.00;3.75;;;;;;;;;;4408517;32;20363;-80
2022/04/20 10:53:08;;;;;;;5.87;3.85;;;;;;;;;;4408076;32;20042;-79
2022/04/20 10:55:33;;;;;;;7.95;4.30;;;;;;;;;;4394088;32;20443;-79
2022/04/20 10:58:03;;;;;;;6.87;3.78;;;;;;;;;;4407516;32;20022;-79
2022/04/20 11:00:35;;;;;;;7.60;3.90;;;;;;;;;;4393465;32;20417;-78
2022/04/20 11:03:02;;;;;;;5.75;3.78;;;;;;;;;;4393652;32;20042;-79
2022/04/20 11:05:27;;;;;;;5.75;3.67;;;;;;;;;;4407752;32;20030;-79
2022/04/20 11:08:11;;;;;;;5.75;4.35;;;;;;;;;;4407366;32;20030;-80
2022/04/20 11:10:42;;;;;;;6.87;4.20;;;;;;;;;;4393577;32;20030;-79
2022/04/20 11:19:05;;;;;;;5.80;4.10;;;;;;;;;;4408003;32;20057;-79
2022/04/20 11:21:30;;;;;;;9.90;3.45;;;;;;;;;;4407905;32;20044;-79
2022/04/20 11:24:19;;;;;;;9.40;4.28;;;;;;;;;;4407361;32;20026;-78
2022/04/20 11:26:54;;;;;;;10.00;3.95;;;;;;;;;;4406948;32;20079;-81
2022/04/20 11:29:22;;;;;;;5.72;3.55;;;;;;;;;;4406720;32;20030;-80
2022/04/20 11:31:51;;;;;;;4.30;3.20;;;;;;;;;;4406414;32;20044;-79
2022/04/20 11:34:18;;;;;;;5.97;3.37;;;;;;;;;;4406992;32;20456;-77
2022/04/20 11:37:00;;;;;;;4.85;3.10;;;;;;;;;;4407276;32;20046;-77
2022/04/20 11:39:28;;;;;;;6.80;3.35;;;;;;;;;;4406851;32;20056;-79
2022/04/20 11:41:57;;;;;;;5.45;3.70;;;;;;;;;;4406823;32;20439;-81
2022/04/20 11:44:22;;;;;;;4.30;3.22;;;;;;;;;;4407284;32;20018;-79
2022/04/20 11:46:53;;;;;;;4.87;3.17;;;;;;;;;;4406585;32;20077;-79
2022/04/20 11:49:19;;;;;;;4.75;3.30;;;;;;;;;;4406630;32;20034;-78
2022/04/20 11:51:46;;;;;;;6.15;4.20;;;;;;;;;;4406696;32;20455;-78
2022/04/20 11:54:17;;;;;;;5.12;3.08;;;;;;;;;;4406711;32;20049;-79
2022/04/20 11:56:42;;;;;;;5.62;3.08;;;;;;;;;;4407800;32;20390;-79
2022/04/20 11:59:09;;;;;;;8.70;3.22;;;;;;;;;;4406427;32;20415;-81
2022/04/20 12:01:36;;;;;;;4.78;2.80;;;;;;;;;;4406322;32;20030;-79
2022/04/20 12:04:09;;;;;;;13.27;3.35;;;;;;;;;;4406868;32;20112;-79
2022/04/20 12:06:35;;;;;;;5.60;2.40;;;;;;;;;;4407148;32;20463;-80
2022/04/20 12:09:00;;;;;;;5.45;2.70;;;;;;;;;;4406491;32;20056;-76
2022/04/20 12:11:25;;;;;;;4.72;2.72;;;;;;;;;;4406924;32;20463;-81
2022/04/20 12:13:53;;;;;;;3.87;2.37;;;;;;;;;;4406505;32;20366;-80
2022/04/20 12:16:24;;;;;;;7.43;2.87;;;;;;;;;;4392721;32;20436;-79
2022/04/20 12:18:51;;;;;;;10.85;3.35;;;;;;;;;;4406196;32;20044;-79
2022/04/20 12:21:36;;;;;;;6.50;2.80;;;;;;;;;;4406280;32;20052;-77
2022/04/20 12:24:02;;;;;;;6.43;2.80;;;;;;;;;;4406281;32;20038;-80
2022/04/20 12:26:28;;;;;;;4.32;2.78;;;;;;;;;;4406484;32;20021;-80
2022/04/20 12:29:00;;;;;;;5.35;2.70;;;;;;;;;;4392713;32;20389;-76
2022/04/20 12:31:26;;;;;;;5.37;3.12;;;;;;;;;;4406499;32;20160;-78
2022/04/20 12:34:01;;;;;;;3.55;2.67;;;;;;;;;;4406012;32;20424;-80
2022/04/20 12:36:26;;;;;;;6.53;3.30;;;;;;;;;;4406578;32;20401;-79
2022/04/20 12:38:51;;;;;;;7.95;2.62;;;;;;;;;;4405757;32;20395;-80
2022/04/20 12:41:36;;;;;;;6.32;2.50;;;;;;;;;;4391856;32;20399;-75
2022/04/20 12:44:21;;;;;;;5.25;3.05;;;;;;;;;;4392270;32;20026;-80
2022/04/20 12:46:47;;;;;;;7.60;2.65;;;;;;;;;;4367259;32;20038;-80
2022/04/20 12:49:25;;;;;;;9.38;3.65;;;;;;;;;;4392628;32;20030;-77
2022/04/20 12:51:53;;;;;;;6.75;2.72;;;;;;;;;;4393299;32;20343;-79
2022/04/20 12:54:22;;;;;;;6.55;2.67;;;;;;;;;;4392123;32;20347;-79
2022/04/20 13:02:21;;;;;;;5.70;2.45;;;;;;;;;;4406059;32;20045;-78
2022/04/20 13:04:47;;;;;;;6.37;2.20;;;;;;;;;;4392108;32;20092;-80
2022/04/20 13:07:12;;;;;;;4.80;2.87;;;;;;;;;;4405330;32;20026;-79
2022/04/20 13:09:38;;;;;;;4.12;2.72;;;;;;;;;;4405491;32;20477;-77
2022/04/20 13:12:04;;;;;;;11.70;2.70;;;;;;;;;;4406465;32;20026;-77
2022/04/20 13:14:31;;;;;;;4.05;2.30;;;;;;;;;;4405544;32;20034;-78
2022/04/20 13:16:56;;;;;;;3.95;2.37;;;;;;;;;;4405833;32;20080;-79
2022/04/20 13:19:22;;;;;;;4.10;2.25;;;;;;;;;;4405514;32;20026;-81
2022/04/20 13:21:47;;;;;;;5.87;2.33;;;;;;;;;;4405876;32;20104;-80
2022/04/20 13:24:12;;;;;;;4.65;2.40;;;;;;;;;;4405689;32;20422;-78
2022/04/20 13:29:31;;;;;;;7.40;2.40;;;;;;;;;;4405456;32;20112;-80
2022/04/20 13:31:56;;;;;;;4.82;2.70;;;;;;;;;;4392561;32;20027;-76
2022/04/20 13:34:21;;;;;;;6.55;2.83;;;;;;;;;;4405605;32;20438;-79
2022/04/20 13:36:46;;;;;;;4.37;2.83;;;;;;;;;;4405232;32;20408;-76
2022/04/20 13:39:11;;;;;;;4.30;2.97;;;;;;;;;;4404928;32;20470;-78
2022/04/20 13:41:37;;;;;;;5.32;2.67;;;;;;;;;;4391258;32;20038;-75
2022/04/20 13:44:03;;;;;;;6.37;3.17;;;;;;;;;;4405256;32;20136;-77
2022/04/20 13:46:28;;;;;;;3.12;2.62;;;;;;;;;;4405584;32;20393;-78
2022/04/20 13:48:54;;;;;;;5.80;2.95;;;;;;;;;;4405083;32;20050;-80
2022/04/20 13:51:19;;;;;;;5.32;2.75;;;;;;;;;;4405177;32;20092;-80
2022/04/20 13:53:44;;;;;;;4.75;2.80;;;;;;;;;;4404721;32;20057;-75
2022/04/20 13:56:14;;;;;;;2.90;2.40;;;;;;;;;;4404294;32;20018;-79
2022/04/20 13:58:39;;;;;;;4.43;2.37;;;;;;;;;;4405228;32;20482;-79
2022/04/20 14:01:05;;;;;;;3.78;2.85;;;;;;;;;;4405311;32;20087;-79
2022/04/20 14:03:30;;;;;;;5.12;2.55;;;;;;;;;;4404468;32;20034;-78
2022/04/20 14:05:55;;;;;;;5.22;2.30;;;;;;;;;;4404790;32;20027;-78
2022/04/20 14:08:21;;;;;;;6.82;2.60;;;;;;;;;;4404832;32;20030;-78
2022/04/20 14:10:46;;;;;;;6.20;2.42;;;;;;;;;;4404754;32;20395;-79
2022/04/20 14:13:12;;;;;;;5.70;2.58;;;;;;;;;;4405143;32;20347;-80
2022/04/20 14:15:37;;;;;;;5.22;2.35;;;;;;;;;;4404926;32;20053;-79
2022/04/20 14:18:02;;;;;;;5.50;2.47;;;;;;;;;;4405839;32;20082;-76
2022/04/20 14:20:28;;;;;;;3.33;2.47;;;;;;;;;;4405119;32;20049;-79
2022/04/20 14:22:53;;;;;;;6.18;2.50;;;;;;;;;;4405538;32;20061;-79
2022/04/20 14:33:33;;;;;;;6.35;2.67;;;;;;;;;;4405038;32;20359;-80
2022/04/20 14:35:58;;;;;;;5.97;3.28;;;;;;;;;;4405848;32;20018;-80
2022/04/20 14:38:24;;;;;;;7.12;2.47;;;;;;;;;;4390730;32;20046;-80
2022/04/20 14:40:51;;;;;;;5.07;2.80;;;;;;;;;;4404517;32;20023;-77
2022/04/20 14:43:16;;;;;;;3.70;2.87;;;;;;;;;;4405002;32;20360;-77
2022/04/20 14:45:42;;;;;;;3.53;2.40;;;;;;;;;;4405000;32;20056;-76
2022/04/20 14:48:25;;;;;;;4.80;2.50;;;;;;;;;;4405281;32;20336;-79
2022/04/20 14:50:54;;;;;;;5.50;2.42;;;;;;;;;;4405198;32;20084;-81
2022/04/20 14:53:19;;;;;;;4.85;2.62;;;;;;;;;;4404426;32;20056;-80
2022/04/20 14:55:44;;;;;;;5.45;2.85;;;;;;;;;;4391023;32;20074;-77
2022/04/20 14:58:09;;;;;;;8.93;2.87;;;;;;;;;;4404709;32;20341;-79
2022/04/20 15:00:37;;;;;;;3.45;2.45;;;;;;;;;;4404576;32;20164;-77
2022/04/20 15:03:03;;;;;;;4.47;2.35;;;;;;;;;;4405083;32;20122;-80
2022/04/20 15:05:28;;;;;;;4.75;2.53;;;;;;;;;;4392221;32;20018;-80
2022/04/20 15:07:54;;;;;;;4.60;2.58;;;;;;;;;;4407475;32;20397;-77
2022/04/20 15:10:20;;;;;;;5.45;2.75;;;;;;;;;;4407320;32;20076;-79
2022/04/20 15:12:49;;;;;;;4.55;2.60;;;;;;;;;;4394104;32;20415;-79
2022/04/20 15:15:15;;;;;;;5.68;2.83;;;;;;;;;;4407188;32;20091;-79
2022/04/20 15:17:40;;;;;;;4.30;2.80;;;;;;;;;;4407517;32;20030;-78
2022/04/20 15:20:06;;;;;;;4.35;2.60;;;;;;;;;;4407518;32;20121;-79
2022/04/20 15:22:32;;;;;;;9.13;2.60;;;;;;;;;;4407103;32;20030;-81
2022/04/20 15:24:57;;;;;;;5.90;2.87;;;;;;;;;;4406895;32;20380;-78
2022/04/20 15:27:22;;;;;;;4.65;2.30;;;;;;;;;;4407341;32;20026;-80
2022/04/20 15:29:48;;;;;;;10.60;7.05;;;;;;;;;;4407506;32;20034;-81
2022/04/20 15:32:13;;;;;;;6.07;2.72;;;;;;;;;;4406874;32;20018;-78
2022/04/20 15:34:38;;;;;;;6.80;3.08;;;;;;;;;;4392986;32;20140;-79
2022/04/20 15:37:05;;;;;;;4.65;2.20;;;;;;;;;;4406939;32;20393;-77
2022/04/20 15:39:34;;;;;;;7.25;2.80;;;;;;;;;;4393135;32;20114;-79
2022/04/20 15:42:00;;;;;;;4.25;2.60;;;;;;;;;;4406732;32;20021;-75
2022/04/20 15:44:25;;;;;;;4.28;2.87;;;;;;;;;;4407526;32;20121;-81
2022/04/20 15:46:50;;;;;;;8.05;3.58;;;;;;;;;;4406754;32;20057;-80
2022/04/20 15:49:15;;;;;;;11.05;2.87;;;;;;;;;;4407025;32;20117;-79
2022/04/20 15:51:45;;;;;;;5.50;2.78;;;;;;;;;;4393043;32;20072;-80
2022/04/20 15:54:14;;;;;;;4.82;2.62;;;;;;;;;;4392759;32;20022;-80